sensor_id;sensor_type;location;lat;lon;timestamp;P1;durP1;ratioP1;P2;durP2;ratioP2
20830;SDS011;10576;53.556;9.868;2023-04-25T00:00:18;7.80;;;4.80;;
20830;SDS011;10576;53.556;9.868;2023-04-25T00:02:44;12.50;;;4.70;;
20830;SDS011;10576;53.556;9.868;2023-04-25T00:05:11;12.52;;;4.80;;
20830;SDS011;10576;53.556;9.868;2023-04-25T00:07:39;11.20;;;4.43;;
20830;SDS011;10576;53.556;9.868;2023-04-25T00:10:07;13.67;;;4.40;;
20830;SDS011;10576;53.556;9.868;2023-04-25T00:12:34;13.85;;;4.60;;
20830;SDS011;10576;53.556;9.868;2023-04-25T00:15:00;15.23;;;5.07;;
20830;SDS011;10576;53.556;9.868;2023-04-25T00:17:26;16.17;;;5.00;;
20830;SDS011;10576;53.556;9.868;2023-04-25T00:19:52;16.30;;;4.90;;
20830;SDS011;10576;53.556;9.868;2023-04-25T00:22:18;18.27;;;5.30;;
20830;SDS011;10576;53.556;9.868;2023-04-25T00:24:43;13.90;;;4.90;;
20830;SDS011;10576;53.556;9.868;2023-04-25T00:27:09;13.87;;;4.80;;
20830;SDS011;10576;53.556;9.868;2023-04-25T00:29:35;16.23;;;5.03;;
20830;SDS011;10576;53.556;9.868;2023-04-25T00:32:01;20.77;;;5.07;;
20830;SDS011;10576;53.556;9.868;2023-04-25T00:34:27;20.25;;;5.18;;
20830;SDS011;10576;53.556;9.868;2023-04-25T00:36:53;20.80;;;5.13;;
20830;SDS011;10576;53.556;9.868;2023-04-25T00:39:18;18.23;;;4.47;;
20830;SDS011;10576;53.556;9.868;2023-04-25T00:41:44;14.30;;;4.50;;
20830;SDS011;10576;53.556;9.868;2023-04-25T00:44:10;16.17;;;4.70;;
20830;SDS011;10576;53.556;9.868;2023-04-25T00:46:37;16.80;;;5.22;;
20830;SDS011;10576;53.556;9.868;2023-04-25T00:49:04;15.30;;;4.80;;
20830;SDS011;10576;53.556;9.868;2023-04-25T00:51:30;19.77;;;4.70;;
20830;SDS011;10576;53.556;9.868;2023-04-25T00:53:57;20.33;;;4.38;;
20830;SDS011;10576;53.556;9.868;2023-04-25T00:56:23;22.53;;;5.00;;
20830;SDS011;10576;53.556;9.868;2023-04-25T00:58:50;21.77;;;5.10;;
20830;SDS011;10576;53.556;9.868;2023-04-25T01:01:19;17.63;;;5.18;;
20830;SDS011;10576;53.556;9.868;2023-04-25T01:03:45;19.90;;;4.90;;
20830;SDS011;10576;53.556;9.868;2023-04-25T01:06:11;19.48;;;5.32;;
20830;SDS011;10576;53.556;9.868;2023-04-25T01:08:38;21.40;;;5.18;;
20830;SDS011;10576;53.556;9.868;2023-04-25T01:11:04;20.40;;;5.03;;
20830;SDS011;10576;53.556;9.868;2023-04-25T01:13:31;19.95;;;5.40;;
20830;SDS011;10576;53.556;9.868;2023-04-25T01:15:58;19.15;;;5.47;;
20830;SDS011;10576;53.556;9.868;2023-04-25T01:18:24;18.90;;;5.40;;
20830;SDS011;10576;53.556;9.868;2023-04-25T01:20:51;20.87;;;5.43;;
20830;SDS011;10576;53.556;9.868;2023-04-25T01:23:18;24.60;;;5.38;;
20830;SDS011;10576;53.556;9.868;2023-04-25T01:25:45;18.67;;;5.15;;
20830;SDS011;10576;53.556;9.868;2023-04-25T01:28:11;21.35;;;5.30;;
20830;SDS011;10576;53.556;9.868;2023-04-25T01:30:37;22.43;;;5.53;;
20830;SDS011;10576;53.556;9.868;2023-04-25T01:33:04;22.38;;;5.70;;
20830;SDS011;10576;53.556;9.868;2023-04-25T01:35:30;20.20;;;5.00;;
20830;SDS011;10576;53.556;9.868;2023-04-25T01:37:57;17.55;;;5.53;;
20830;SDS011;10576;53.556;9.868;2023-04-25T01:40:22;19.75;;;5.85;;
20830;SDS011;10576;53.556;9.868;2023-04-25T01:42:49;23.52;;;5.30;;
20830;SDS011;10576;53.556;9.868;2023-04-25T01:45:16;23.15;;;5.60;;
20830;SDS011;10576;53.556;9.868;2023-04-25T01:47:42;24.75;;;5.70;;
20830;SDS011;10576;53.556;9.868;2023-04-25T01:50:11;25.33;;;5.50;;
20830;SDS011;10576;53.556;9.868;2023-04-25T01:52:38;24.48;;;5.63;;
20830;SDS011;10576;53.556;9.868;2023-04-25T01:55:03;21.37;;;5.87;;
20830;SDS011;10576;53.556;9.868;2023-04-25T01:57:30;19.13;;;5.53;;
20830;SDS011;10576;53.556;9.868;2023-04-25T02:00:00;21.45;;;5.45;;
20830;SDS011;10576;53.556;9.868;2023-04-25T02:02:28;21.58;;;5.50;;
20830;SDS011;10576;53.556;9.868;2023-04-25T02:04:53;23.80;;;6.05;;
20830;SDS011;10576;53.556;9.868;2023-04-25T02:07:19;26.55;;;6.00;;
20830;SDS011;10576;53.556;9.868;2023-04-25T02:09:45;21.27;;;5.47;;
20830;SDS011;10576;53.556;9.868;2023-04-25T02:12:11;22.77;;;5.60;;
20830;SDS011;10576;53.556;9.868;2023-04-25T02:14:36;23.73;;;5.70;;
20830;SDS011;10576;53.556;9.868;2023-04-25T02:17:02;20.50;;;5.23;;
20830;SDS011;10576;53.556;9.868;2023-04-25T02:19:28;24.70;;;5.70;;
20830;SDS011;10576;53.556;9.868;2023-04-25T02:21:54;23.37;;;4.97;;
20830;SDS011;10576;53.556;9.868;2023-04-25T02:24:20;22.23;;;5.10;;
20830;SDS011;10576;53.556;9.868;2023-04-25T02:26:45;26.58;;;5.93;;
20830;SDS011;10576;53.556;9.868;2023-04-25T02:29:12;21.40;;;5.60;;
20830;SDS011;10576;53.556;9.868;2023-04-25T02:31:37;21.13;;;5.15;;
20830;SDS011;10576;53.556;9.868;2023-04-25T02:34:03;21.30;;;5.27;;
20830;SDS011;10576;53.556;9.868;2023-04-25T02:36:29;24.40;;;5.40;;
20830;SDS011;10576;53.556;9.868;2023-04-25T02:38:59;20.40;;;5.07;;
20830;SDS011;10576;53.556;9.868;2023-04-25T02:41:25;21.73;;;4.90;;
20830;SDS011;10576;53.556;9.868;2023-04-25T02:43:51;20.03;;;5.33;;
20830;SDS011;10576;53.556;9.868;2023-04-25T02:46:16;18.63;;;4.82;;
20830;SDS011;10576;53.556;9.868;2023-04-25T02:48:42;16.88;;;4.68;;
20830;SDS011;10576;53.556;9.868;2023-04-25T02:51:08;16.63;;;5.00;;
20830;SDS011;10576;53.556;9.868;2023-04-25T02:53:34;18.45;;;4.60;;
20830;SDS011;10576;53.556;9.868;2023-04-25T02:55:59;21.13;;;4.60;;
20830;SDS011;10576;53.556;9.868;2023-04-25T02:58:25;16.77;;;4.90;;
20830;SDS011;10576;53.556;9.868;2023-04-25T03:00:51;21.08;;;4.85;;
20830;SDS011;10576;53.556;9.868;2023-04-25T03:03:17;19.33;;;4.93;;
20830;SDS011;10576;53.556;9.868;2023-04-25T03:05:46;18.05;;;4.60;;
20830;SDS011;10576;53.556;9.868;2023-04-25T03:08:13;18.20;;;4.80;;
20830;SDS011;10576;53.556;9.868;2023-04-25T03:10:39;24.63;;;5.10;;
20830;SDS011;10576;53.556;9.868;2023-04-25T03:13:04;19.60;;;4.78;;
20830;SDS011;10576;53.556;9.868;2023-04-25T03:15:30;17.98;;;4.50;;
20830;SDS011;10576;53.556;9.868;2023-04-25T03:17:56;17.13;;;4.68;;
20830;SDS011;10576;53.556;9.868;2023-04-25T03:20:21;15.77;;;4.57;;
20830;SDS011;10576;53.556;9.868;2023-04-25T03:22:47;19.10;;;4.73;;
20830;SDS011;10576;53.556;9.868;2023-04-25T03:25:13;20.00;;;4.30;;
20830;SDS011;10576;53.556;9.868;2023-04-25T03:27:38;20.67;;;4.68;;
20830;SDS011;10576;53.556;9.868;2023-04-25T03:30:04;19.40;;;4.75;;
20830;SDS011;10576;53.556;9.868;2023-04-25T03:32:31;19.83;;;4.60;;
20830;SDS011;10576;53.556;9.868;2023-04-25T03:34:57;17.97;;;4.37;;
20830;SDS011;10576;53.556;9.868;2023-04-25T03:37:22;18.67;;;4.63;;
20830;SDS011;10576;53.556;9.868;2023-04-25T03:39:48;17.95;;;4.55;;
20830;SDS011;10576;53.556;9.868;2023-04-25T03:42:14;18.08;;;4.35;;
20830;SDS011;10576;53.556;9.868;2023-04-25T03:44:39;18.02;;;4.53;;
20830;SDS011;10576;53.556;9.868;2023-04-25T03:47:05;17.02;;;4.50;;
20830;SDS011;10576;53.556;9.868;2023-04-25T03:49:32;14.02;;;4.22;;
20830;SDS011;10576;53.556;9.868;2023-04-25T03:51:59;18.00;;;4.07;;
20830;SDS011;10576;53.556;9.868;2023-04-25T03:54:25;12.73;;;3.85;;
20830;SDS011;10576;53.556;9.868;2023-04-25T03:56:51;15.60;;;4.03;;
20830;SDS011;10576;53.556;9.868;2023-04-25T03:59:16;15.20;;;4.13;;
20830;SDS011;10576;53.556;9.868;2023-04-25T04:01:42;17.20;;;4.03;;
20830;SDS011;10576;53.556;9.868;2023-04-25T04:04:07;17.27;;;4.00;;
20830;SDS011;10576;53.556;9.868;2023-04-25T04:06:33;13.02;;;3.83;;
20830;SDS011;10576;53.556;9.868;2023-04-25T04:08:59;16.58;;;4.20;;
20830;SDS011;10576;53.556;9.868;2023-04-25T04:11:25;13.80;;;4.00;;
20830;SDS011;10576;53.556;9.868;2023-04-25T04:13:50;16.75;;;3.75;;
20830;SDS011;10576;53.556;9.868;2023-04-25T04:16:16;16.35;;;4.13;;
20830;SDS011;10576;53.556;9.868;2023-04-25T04:18:42;17.42;;;3.75;;
20830;SDS011;10576;53.556;9.868;2023-04-25T04:21:08;18.97;;;4.23;;
20830;SDS011;10576;53.556;9.868;2023-04-25T04:23:34;15.80;;;4.07;;
20830;SDS011;10576;53.556;9.868;2023-04-25T04:26:00;15.67;;;3.57;;
20830;SDS011;10576;53.556;9.868;2023-04-25T04:28:26;18.10;;;4.10;;
20830;SDS011;10576;53.556;9.868;2023-04-25T04:30:51;13.00;;;3.78;;
20830;SDS011;10576;53.556;9.868;2023-04-25T04:33:17;16.27;;;4.60;;
20830;SDS011;10576;53.556;9.868;2023-04-25T04:35:46;15.00;;;3.80;;
20830;SDS011;10576;53.556;9.868;2023-04-25T04:38:12;15.93;;;3.90;;
20830;SDS011;10576;53.556;9.868;2023-04-25T04:40:40;12.52;;;3.88;;
20830;SDS011;10576;53.556;9.868;2023-04-25T04:43:08;17.33;;;3.80;;
20830;SDS011;10576;53.556;9.868;2023-04-25T04:45:36;14.57;;;4.15;;
20830;SDS011;10576;53.556;9.868;2023-04-25T04:48:04;11.70;;;3.87;;
20830;SDS011;10576;53.556;9.868;2023-04-25T04:50:33;13.02;;;3.70;;
20830;SDS011;10576;53.556;9.868;2023-04-25T04:53:00;15.45;;;3.80;;
20830;SDS011;10576;53.556;9.868;2023-04-25T04:55:26;13.15;;;3.90;;
20830;SDS011;10576;53.556;9.868;2023-04-25T04:57:52;18.77;;;4.03;;
20830;SDS011;10576;53.556;9.868;2023-04-25T05:00:17;17.83;;;3.70;;
20830;SDS011;10576;53.556;9.868;2023-04-25T05:02:43;14.57;;;4.20;;
20830;SDS011;10576;53.556;9.868;2023-04-25T05:05:09;14.40;;;3.83;;
20830;SDS011;10576;53.556;9.868;2023-04-25T05:07:35;15.27;;;4.20;;
20830;SDS011;10576;53.556;9.868;2023-04-25T05:10:00;11.57;;;3.73;;
20830;SDS011;10576;53.556;9.868;2023-04-25T05:12:26;17.63;;;3.90;;
20830;SDS011;10576;53.556;9.868;2023-04-25T05:14:52;15.95;;;4.13;;
20830;SDS011;10576;53.556;9.868;2023-04-25T05:17:17;13.77;;;3.85;;
20830;SDS011;10576;53.556;9.868;2023-04-25T05:19:43;17.42;;;4.15;;
20830;SDS011;10576;53.556;9.868;2023-04-25T05:22:09;12.27;;;3.50;;
20830;SDS011;10576;53.556;9.868;2023-04-25T05:24:34;17.15;;;3.75;;
20830;SDS011;10576;53.556;9.868;2023-04-25T05:27:00;15.37;;;4.13;;
20830;SDS011;10576;53.556;9.868;2023-04-25T05:29:25;15.00;;;3.90;;
20830;SDS011;10576;53.556;9.868;2023-04-25T05:31:51;15.03;;;3.80;;
20830;SDS011;10576;53.556;9.868;2023-04-25T05:34:17;13.77;;;3.60;;
20830;SDS011;10576;53.556;9.868;2023-04-25T05:36:43;11.47;;;3.50;;
20830;SDS011;10576;53.556;9.868;2023-04-25T05:39:09;11.30;;;3.70;;
20830;SDS011;10576;53.556;9.868;2023-04-25T05:41:35;12.52;;;3.55;;
20830;SDS011;10576;53.556;9.868;2023-04-25T05:44:02;13.43;;;3.90;;
20830;SDS011;10576;53.556;9.868;2023-04-25T05:46:27;15.15;;;4.00;;
20830;SDS011;10576;53.556;9.868;2023-04-25T05:48:53;16.33;;;3.93;;
20830;SDS011;10576;53.556;9.868;2023-04-25T05:51:18;13.37;;;3.83;;
20830;SDS011;10576;53.556;9.868;2023-04-25T05:53:44;13.43;;;3.77;;
20830;SDS011;10576;53.556;9.868;2023-04-25T05:56:10;13.13;;;4.10;;
20830;SDS011;10576;53.556;9.868;2023-04-25T05:58:35;14.98;;;3.45;;
20830;SDS011;10576;53.556;9.868;2023-04-25T06:01:01;13.50;;;3.47;;
20830;SDS011;10576;53.556;9.868;2023-04-25T06:03:27;12.37;;;3.60;;
20830;SDS011;10576;53.556;9.868;2023-04-25T06:05:53;11.57;;;3.50;;
20830;SDS011;10576;53.556;9.868;2023-04-25T06:08:19;15.15;;;3.78;;
20830;SDS011;10576;53.556;9.868;2023-04-25T06:10:44;14.07;;;3.55;;
20830;SDS011;10576;53.556;9.868;2023-04-25T06:13:10;14.57;;;4.27;;
20830;SDS011;10576;53.556;9.868;2023-04-25T06:15:36;13.93;;;3.87;;
20830;SDS011;10576;53.556;9.868;2023-04-25T06:18:01;15.20;;;4.00;;
20830;SDS011;10576;53.556;9.868;2023-04-25T06:20:27;11.63;;;3.30;;
20830;SDS011;10576;53.556;9.868;2023-04-25T06:22:53;11.10;;;3.35;;
20830;SDS011;10576;53.556;9.868;2023-04-25T06:25:18;15.20;;;3.90;;
20830;SDS011;10576;53.556;9.868;2023-04-25T06:27:44;11.48;;;3.40;;
20830;SDS011;10576;53.556;9.868;2023-04-25T06:30:10;9.43;;;3.10;;
20830;SDS011;10576;53.556;9.868;2023-04-25T06:32:37;12.63;;;3.53;;
20830;SDS011;10576;53.556;9.868;2023-04-25T06:35:03;12.30;;;3.55;;
20830;SDS011;10576;53.556;9.868;2023-04-25T06:37:29;11.93;;;3.40;;
20830;SDS011;10576;53.556;9.868;2023-04-25T06:39:55;13.30;;;3.70;;
20830;SDS011;10576;53.556;9.868;2023-04-25T06:42:20;13.05;;;3.75;;
20830;SDS011;10576;53.556;9.868;2023-04-25T06:44:46;9.80;;;3.30;;
20830;SDS011;10576;53.556;9.868;2023-04-25T06:47:12;10.97;;;3.70;;
20830;SDS011;10576;53.556;9.868;2023-04-25T06:49:37;10.57;;;3.20;;
20830;SDS011;10576;53.556;9.868;2023-04-25T06:52:03;12.37;;;3.20;;
20830;SDS011;10576;53.556;9.868;2023-04-25T06:54:29;11.70;;;3.17;;
20830;SDS011;10576;53.556;9.868;2023-04-25T06:56:55;11.82;;;3.40;;
20830;SDS011;10576;53.556;9.868;2023-04-25T06:59:21;12.10;;;3.33;;
20830;SDS011;10576;53.556;9.868;2023-04-25T07:01:47;13.35;;;3.30;;
20830;SDS011;10576;53.556;9.868;2023-04-25T07:04:12;12.05;;;3.33;;
20830;SDS011;10576;53.556;9.868;2023-04-25T07:06:38;12.47;;;3.53;;
20830;SDS011;10576;53.556;9.868;2023-04-25T07:09:07;10.55;;;3.42;;
20830;SDS011;10576;53.556;9.868;2023-04-25T07:11:35;9.73;;;2.93;;
20830;SDS011;10576;53.556;9.868;2023-04-25T07:14:01;11.15;;;3.20;;
20830;SDS011;10576;53.556;9.868;2023-04-25T07:16:26;11.35;;;3.28;;
20830;SDS011;10576;53.556;9.868;2023-04-25T07:18:52;13.97;;;3.30;;
20830;SDS011;10576;53.556;9.868;2023-04-25T07:21:18;11.10;;;3.00;;
20830;SDS011;10576;53.556;9.868;2023-04-25T07:23:43;10.10;;;2.90;;
20830;SDS011;10576;53.556;9.868;2023-04-25T07:26:09;15.10;;;3.30;;
20830;SDS011;10576;53.556;9.868;2023-04-25T07:28:35;12.13;;;3.13;;
20830;SDS011;10576;53.556;9.868;2023-04-25T07:31:10;12.02;;;3.03;;
20830;SDS011;10576;53.556;9.868;2023-04-25T07:33:44;7.03;;;2.97;;
20830;SDS011;10576;53.556;9.868;2023-04-25T07:36:12;10.07;;;2.85;;
20830;SDS011;10576;53.556;9.868;2023-04-25T07:38:40;7.60;;;2.40;;
20830;SDS011;10576;53.556;9.868;2023-04-25T07:41:05;9.27;;;2.60;;
20830;SDS011;10576;53.556;9.868;2023-04-25T07:43:31;10.05;;;2.80;;
20830;SDS011;10576;53.556;9.868;2023-04-25T07:45:57;6.40;;;2.10;;
20830;SDS011;10576;53.556;9.868;2023-04-25T07:48:22;10.20;;;2.90;;
20830;SDS011;10576;53.556;9.868;2023-04-25T07:50:48;8.02;;;2.45;;
20830;SDS011;10576;53.556;9.868;2023-04-25T07:53:14;11.13;;;2.70;;
20830;SDS011;10576;53.556;9.868;2023-04-25T07:55:39;6.03;;;1.90;;
20830;SDS011;10576;53.556;9.868;2023-04-25T07:58:06;9.77;;;2.40;;
20830;SDS011;10576;53.556;9.868;2023-04-25T08:00:32;10.93;;;2.40;;
20830;SDS011;10576;53.556;9.868;2023-04-25T08:02:58;7.43;;;2.30;;
20830;SDS011;10576;53.556;9.868;2023-04-25T08:05:23;6.70;;;2.10;;
20830;SDS011;10576;53.556;9.868;2023-04-25T08:07:49;8.07;;;2.45;;
20830;SDS011;10576;53.556;9.868;2023-04-25T08:10:16;8.15;;;2.42;;
20830;SDS011;10576;53.556;9.868;2023-04-25T08:12:42;7.00;;;2.20;;
20830;SDS011;10576;53.556;9.868;2023-04-25T08:15:08;10.43;;;2.43;;
20830;SDS011;10576;53.556;9.868;2023-04-25T08:17:33;6.82;;;2.20;;
20830;SDS011;10576;53.556;9.868;2023-04-25T08:19:59;10.40;;;2.63;;
20830;SDS011;10576;53.556;9.868;2023-04-25T08:22:25;8.85;;;2.70;;
20830;SDS011;10576;53.556;9.868;2023-04-25T08:24:50;7.43;;;2.22;;
20830;SDS011;10576;53.556;9.868;2023-04-25T08:27:17;8.20;;;2.08;;
20830;SDS011;10576;53.556;9.868;2023-04-25T08:29:43;7.63;;;2.10;;
20830;SDS011;10576;53.556;9.868;2023-04-25T08:32:09;10.23;;;2.30;;
20830;SDS011;10576;53.556;9.868;2023-04-25T08:34:35;5.85;;;2.10;;
20830;SDS011;10576;53.556;9.868;2023-04-25T08:37:01;8.45;;;2.10;;
20830;SDS011;10576;53.556;9.868;2023-04-25T08:39:29;8.30;;;2.25;;
20830;SDS011;10576;53.556;9.868;2023-04-25T08:41:55;8.02;;;2.28;;
20830;SDS011;10576;53.556;9.868;2023-04-25T08:44:21;12.25;;;2.70;;
20830;SDS011;10576;53.556;9.868;2023-04-25T08:46:48;12.23;;;2.35;;
20830;SDS011;10576;53.556;9.868;2023-04-25T08:49:15;8.63;;;2.00;;
20830;SDS011;10576;53.556;9.868;2023-04-25T08:51:46;7.70;;;2.35;;
20830;SDS011;10576;53.556;9.868;2023-04-25T08:54:12;8.07;;;2.22;;
20830;SDS011;10576;53.556;9.868;2023-04-25T08:56:45;7.65;;;2.08;;
20830;SDS011;10576;53.556;9.868;2023-04-25T08:59:12;8.63;;;2.03;;
20830;SDS011;10576;53.556;9.868;2023-04-25T09:01:38;6.75;;;1.73;;
20830;SDS011;10576;53.556;9.868;2023-04-25T09:04:04;4.28;;;1.60;;
20830;SDS011;10576;53.556;9.868;2023-04-25T09:06:30;3.50;;;1.40;;
20830;SDS011;10576;53.556;9.868;2023-04-25T09:09:06;4.75;;;1.38;;
20830;SDS011;10576;53.556;9.868;2023-04-25T09:11:34;4.65;;;1.33;;
20830;SDS011;10576;53.556;9.868;2023-04-25T09:19:39;6.80;;;1.90;;
20830;SDS011;10576;53.556;9.868;2023-04-25T09:22:05;6.57;;;2.10;;
20830;SDS011;10576;53.556;9.868;2023-04-25T09:27:06;5.90;;;1.75;;
20830;SDS011;10576;53.556;9.868;2023-04-25T09:29:40;6.90;;;2.00;;
20830;SDS011;10576;53.556;9.868;2023-04-25T09:34:47;7.18;;;2.00;;
20830;SDS011;10576;53.556;9.868;2023-04-25T09:37:20;5.75;;;2.15;;
20830;SDS011;10576;53.556;9.868;2023-04-25T09:39:49;7.18;;;1.83;;
20830;SDS011;10576;53.556;9.868;2023-04-25T09:42:16;4.97;;;1.85;;
20830;SDS011;10576;53.556;9.868;2023-04-25T09:44:43;4.88;;;1.75;;
20830;SDS011;10576;53.556;9.868;2023-04-25T09:47:10;7.45;;;1.90;;
20830;SDS011;10576;53.556;9.868;2023-04-25T09:49:38;3.40;;;1.75;;
20830;SDS011;10576;53.556;9.868;2023-04-25T09:52:06;4.53;;;1.87;;
20830;SDS011;10576;53.556;9.868;2023-04-25T09:54:33;7.40;;;2.28;;
20830;SDS011;10576;53.556;9.868;2023-04-25T09:57:06;5.97;;;2.00;;
20830;SDS011;10576;53.556;9.868;2023-04-25T09:59:39;8.13;;;2.05;;
20830;SDS011;10576;53.556;9.868;2023-04-25T10:02:08;6.95;;;2.10;;
20830;SDS011;10576;53.556;9.868;2023-04-25T10:04:34;8.73;;;2.30;;
20830;SDS011;10576;53.556;9.868;2023-04-25T10:07:01;6.15;;;1.80;;
20830;SDS011;10576;53.556;9.868;2023-04-25T10:09:31;7.87;;;2.23;;
20830;SDS011;10576;53.556;9.868;2023-04-25T10:12:01;7.40;;;2.10;;
20830;SDS011;10576;53.556;9.868;2023-04-25T10:14:29;4.97;;;1.60;;
20830;SDS011;10576;53.556;9.868;2023-04-25T10:16:57;5.82;;;1.52;;
20830;SDS011;10576;53.556;9.868;2023-04-25T10:19:24;3.40;;;1.40;;
20830;SDS011;10576;53.556;9.868;2023-04-25T10:21:52;4.85;;;1.80;;
20830;SDS011;10576;53.556;9.868;2023-04-25T10:24:23;6.43;;;1.67;;
20830;SDS011;10576;53.556;9.868;2023-04-25T10:26:50;6.72;;;1.65;;
20830;SDS011;10576;53.556;9.868;2023-04-25T10:29:26;7.18;;;2.03;;
20830;SDS011;10576;53.556;9.868;2023-04-25T10:31:52;7.38;;;2.00;;
20830;SDS011;10576;53.556;9.868;2023-04-25T10:34:24;5.50;;;1.87;;
20830;SDS011;10576;53.556;9.868;2023-04-25T10:37:03;5.30;;;1.73;;
20830;SDS011;10576;53.556;9.868;2023-04-25T10:39:29;7.57;;;1.92;;
20830;SDS011;10576;53.556;9.868;2023-04-25T10:41:56;6.88;;;2.00;;
20830;SDS011;10576;53.556;9.868;2023-04-25T10:44:26;6.20;;;2.00;;
20830;SDS011;10576;53.556;9.868;2023-04-25T10:46:54;5.87;;;1.90;;
20830;SDS011;10576;53.556;9.868;2023-04-25T10:49:31;6.53;;;2.00;;
20830;SDS011;10576;53.556;9.868;2023-04-25T10:52:17;4.85;;;2.00;;
20830;SDS011;10576;53.556;9.868;2023-04-25T10:54:53;5.40;;;1.80;;
20830;SDS011;10576;53.556;9.868;2023-04-25T10:57:27;7.00;;;1.92;;
20830;SDS011;10576;53.556;9.868;2023-04-25T10:59:54;8.55;;;2.22;;
20830;SDS011;10576;53.556;9.868;2023-04-25T11:02:30;6.00;;;1.98;;
20830;SDS011;10576;53.556;9.868;2023-04-25T11:04:56;7.28;;;2.25;;
20830;SDS011;10576;53.556;9.868;2023-04-25T11:10:04;6.07;;;1.85;;
20830;SDS011;10576;53.556;9.868;2023-04-25T11:12:31;7.35;;;2.00;;
20830;SDS011;10576;53.556;9.868;2023-04-25T11:15:00;6.55;;;2.00;;
20830;SDS011;10576;53.556;9.868;2023-04-25T11:17:27;6.70;;;1.88;;
20830;SDS011;10576;53.556;9.868;2023-04-25T11:19:53;6.68;;;1.80;;
20830;SDS011;10576;53.556;9.868;2023-04-25T11:22:19;8.10;;;2.08;;
20830;SDS011;10576;53.556;9.868;2023-04-25T11:24:46;5.78;;;1.90;;
20830;SDS011;10576;53.556;9.868;2023-04-25T11:27:12;5.93;;;1.53;;
20830;SDS011;10576;53.556;9.868;2023-04-25T11:29:38;6.57;;;1.70;;
20830;SDS011;10576;53.556;9.868;2023-04-25T11:32:04;3.27;;;1.30;;
20830;SDS011;10576;53.556;9.868;2023-04-25T11:34:30;3.60;;;1.17;;
20830;SDS011;10576;53.556;9.868;2023-04-25T11:36:59;3.22;;;1.25;;
20830;SDS011;10576;53.556;9.868;2023-04-25T11:39:31;4.07;;;1.33;;
20830;SDS011;10576;53.556;9.868;2023-04-25T11:41:57;5.95;;;1.48;;
20830;SDS011;10576;53.556;9.868;2023-04-25T11:44:23;5.10;;;1.40;;
20830;SDS011;10576;53.556;9.868;2023-04-25T11:46:49;4.40;;;1.42;;
20830;SDS011;10576;53.556;9.868;2023-04-25T11:49:14;5.90;;;1.45;;
20830;SDS011;10576;53.556;9.868;2023-04-25T11:51:43;5.05;;;1.55;;
20830;SDS011;10576;53.556;9.868;2023-04-25T11:54:13;5.20;;;1.50;;
20830;SDS011;10576;53.556;9.868;2023-04-25T11:56:45;5.93;;;1.70;;
20830;SDS011;10576;53.556;9.868;2023-04-25T11:59:11;6.03;;;1.90;;
20830;SDS011;10576;53.556;9.868;2023-04-25T12:01:38;8.15;;;2.00;;
20830;SDS011;10576;53.556;9.868;2023-04-25T12:04:12;5.00;;;1.85;;
20830;SDS011;10576;53.556;9.868;2023-04-25T12:06:38;6.00;;;1.73;;
20830;SDS011;10576;53.556;9.868;2023-04-25T12:09:08;3.72;;;1.67;;
20830;SDS011;10576;53.556;9.868;2023-04-25T12:11:44;4.57;;;1.50;;
20830;SDS011;10576;53.556;9.868;2023-04-25T12:14:11;4.95;;;1.40;;
20830;SDS011;10576;53.556;9.868;2023-04-25T12:16:44;5.88;;;1.70;;
20830;SDS011;10576;53.556;9.868;2023-04-25T12:19:13;4.07;;;1.48;;
20830;SDS011;10576;53.556;9.868;2023-04-25T12:21:40;5.60;;;1.33;;
20830;SDS011;10576;53.556;9.868;2023-04-25T12:24:16;3.45;;;1.20;;
20830;SDS011;10576;53.556;9.868;2023-04-25T12:26:58;3.70;;;1.30;;
20830;SDS011;10576;53.556;9.868;2023-04-25T12:29:26;5.57;;;1.60;;
20830;SDS011;10576;53.556;9.868;2023-04-25T12:31:54;6.47;;;1.73;;
20830;SDS011;10576;53.556;9.868;2023-04-25T12:34:20;3.60;;;1.30;;
20830;SDS011;10576;53.556;9.868;2023-04-25T12:36:46;4.20;;;1.53;;
20830;SDS011;10576;53.556;9.868;2023-04-25T12:39:16;3.87;;;1.60;;
20830;SDS011;10576;53.556;9.868;2023-04-25T12:41:46;4.95;;;1.60;;
20830;SDS011;10576;53.556;9.868;2023-04-25T12:44:13;4.65;;;1.33;;
20830;SDS011;10576;53.556;9.868;2023-04-25T12:46:39;2.85;;;1.42;;
20830;SDS011;10576;53.556;9.868;2023-04-25T12:49:05;5.93;;;1.65;;
20830;SDS011;10576;53.556;9.868;2023-04-25T12:51:33;5.38;;;1.73;;
20830;SDS011;10576;53.556;9.868;2023-04-25T12:53:59;8.20;;;1.98;;
20830;SDS011;10576;53.556;9.868;2023-04-25T12:56:28;7.03;;;1.80;;
20830;SDS011;10576;53.556;9.868;2023-04-25T12:58:55;7.65;;;2.33;;
20830;SDS011;10576;53.556;9.868;2023-04-25T13:01:21;5.27;;;2.00;;
20830;SDS011;10576;53.556;9.868;2023-04-25T13:03:47;8.50;;;2.10;;
20830;SDS011;10576;53.556;9.868;2023-04-25T13:06:14;5.40;;;1.98;;
20830;SDS011;10576;53.556;9.868;2023-04-25T13:08:40;9.45;;;2.20;;
20830;SDS011;10576;53.556;9.868;2023-04-25T13:11:07;6.32;;;1.98;;
20830;SDS011;10576;53.556;9.868;2023-04-25T13:13:33;3.92;;;1.70;;
20830;SDS011;10576;53.556;9.868;2023-04-25T13:16:00;5.50;;;1.73;;
20830;SDS011;10576;53.556;9.868;2023-04-25T13:18:26;6.40;;;1.77;;
20830;SDS011;10576;53.556;9.868;2023-04-25T13:20:53;5.47;;;1.98;;
20830;SDS011;10576;53.556;9.868;2023-04-25T13:23:19;5.93;;;1.90;;
20830;SDS011;10576;53.556;9.868;2023-04-25T13:25:45;6.13;;;1.60;;
20830;SDS011;10576;53.556;9.868;2023-04-25T13:28:11;7.22;;;1.88;;
20830;SDS011;10576;53.556;9.868;2023-04-25T13:30:38;6.22;;;2.00;;
20830;SDS011;10576;53.556;9.868;2023-04-25T13:33:04;4.82;;;1.80;;
20830;SDS011;10576;53.556;9.868;2023-04-25T13:35:31;7.13;;;1.97;;
20830;SDS011;10576;53.556;9.868;2023-04-25T13:37:58;6.30;;;2.00;;
20830;SDS011;10576;53.556;9.868;2023-04-25T13:40:24;5.93;;;1.77;;
20830;SDS011;10576;53.556;9.868;2023-04-25T13:42:51;7.63;;;2.00;;
20830;SDS011;10576;53.556;9.868;2023-04-25T13:45:17;9.45;;;2.00;;
20830;SDS011;10576;53.556;9.868;2023-04-25T13:47:43;4.97;;;1.87;;
20830;SDS011;10576;53.556;9.868;2023-04-25T13:50:09;7.55;;;2.00;;
20830;SDS011;10576;53.556;9.868;2023-04-25T13:52:35;5.57;;;1.70;;
20830;SDS011;10576;53.556;9.868;2023-04-25T13:55:00;3.17;;;1.50;;
20830;SDS011;10576;53.556;9.868;2023-04-25T13:57:28;9.30;;;2.20;;
20830;SDS011;10576;53.556;9.868;2023-04-25T13:59:55;4.47;;;1.95;;
20830;SDS011;10576;53.556;9.868;2023-04-25T14:02:21;5.88;;;2.00;;
20830;SDS011;10576;53.556;9.868;2023-04-25T14:04:47;5.60;;;2.10;;
20830;SDS011;10576;53.556;9.868;2023-04-25T14:07:13;6.70;;;2.43;;
20830;SDS011;10576;53.556;9.868;2023-04-25T14:09:41;11.10;;;2.50;;
20830;SDS011;10576;53.556;9.868;2023-04-25T14:12:07;6.30;;;2.10;;
20830;SDS011;10576;53.556;9.868;2023-04-25T14:14:32;4.95;;;1.95;;
20830;SDS011;10576;53.556;9.868;2023-04-25T14:16:59;7.25;;;2.10;;
20830;SDS011;10576;53.556;9.868;2023-04-25T14:19:25;11.32;;;2.30;;
20830;SDS011;10576;53.556;9.868;2023-04-25T14:21:50;7.10;;;1.90;;
20830;SDS011;10576;53.556;9.868;2023-04-25T14:24:16;7.40;;;2.20;;
20830;SDS011;10576;53.556;9.868;2023-04-25T14:26:43;7.13;;;2.03;;
20830;SDS011;10576;53.556;9.868;2023-04-25T14:29:09;6.30;;;2.10;;
20830;SDS011;10576;53.556;9.868;2023-04-25T14:31:36;7.85;;;2.40;;
20830;SDS011;10576;53.556;9.868;2023-04-25T14:34:03;8.65;;;2.20;;
20830;SDS011;10576;53.556;9.868;2023-04-25T14:36:29;8.38;;;2.53;;
20830;SDS011;10576;53.556;9.868;2023-04-25T14:38:56;7.40;;;2.08;;
20830;SDS011;10576;53.556;9.868;2023-04-25T14:41:22;6.22;;;1.90;;
20830;SDS011;10576;53.556;9.868;2023-04-25T14:43:48;7.43;;;2.03;;
20830;SDS011;10576;53.556;9.868;2023-04-25T14:46:14;6.00;;;2.00;;
20830;SDS011;10576;53.556;9.868;2023-04-25T14:48:39;7.03;;;2.00;;
20830;SDS011;10576;53.556;9.868;2023-04-25T14:51:05;8.07;;;1.90;;